EmailTwitter


Observations de surface / France / LFMK (07635)

Régions: Québec | Canada | États-Unis | Europe | France | UK | Ailleurs
Station
Affichage
Infos & localisation pour LFMK (07635) | Aide pour décoder les METARs

Observations prises le 2019-02-20 à 12H00 UTC à CARCASSONNE/SALV, FR (LFMK)

Température: 14.0 Celsius

Point de rosée: 7.0 Celsius

Humidité relative: 63%

Vents: Est à 24 km/h ou 13 noeuds.

Pression au niveau moyen de la mer: 102.40 kilopascals.

Observation METAR:

LFMK 201200Z AUTO 08013KT 060V120 CAVOK 14/07 Q1024 NOSIG=